Indianapolis, Indiana
Traffic Map
Current Weather Conditions
Indianapolis, Indiana
Overcast Moderate Rain
Overcast
11°
Feels Like: 11°
Wind Chill: 11° Ceiling: 700
Heat Index: 11° Visibility: 4mi
Dew Point: 10° Wind: 13mph
Humidity: 96% Direction: 140° (SE)
Pressure: 29.38in Gusts: 0mph
Raw Report DataKIND 232354Z 14011KT 4SM RA BR BKN007 OVC028 11/10 A2938 RMK AO2 SLP948 P0014 60078 T01060100 10111 20100 56048
Traffic Incident Summary
Active as of:
Severity:
Category:
InformationThere was an issue retrieving the traffic information for this location. Please try a different location or try again shortly.
Advertisements
Track Severe Weather on mobile